Time;durP1;ratioP1;P1;durP2;ratioP2;P2;SDS_P1;SDS_P2;PMS_P1;PMS_P2;Temp;Humidity;BMP_temperature;BMP_pressure;BME280_temperature;BME280_humidity;BME280_pressure;Samples;Min_cycle;Max_cycle;Signal;HPM_P1;HPM_P2
2023/07/27 00:02:07;;;;;;;8.45;3.58;;;;;;;;;;5225316;28;20177;-71
2023/07/27 00:04:38;;;;;;;6.72;3.13;;;;;;;;;;5225342;28;20014;-71
2023/07/27 00:07:08;;;;;;;8.65;4.00;;;;;;;;;;5224669;28;20114;-71
2023/07/27 00:09:38;;;;;;;8.20;4.75;;;;;;;;;;5224546;28;20009;-71
2023/07/27 00:12:09;;;;;;;7.63;3.60;;;;;;;;;;5223874;28;20029;-71
2023/07/27 00:14:39;;;;;;;8.63;4.38;;;;;;;;;;5224404;28;20390;-71
2023/07/27 00:17:09;;;;;;;7.63;3.63;;;;;;;;;;5224234;28;20025;-71
2023/07/27 00:19:39;;;;;;;12.88;3.80;;;;;;;;;;5224791;28;20025;-71
2023/07/27 00:22:10;;;;;;;7.22;4.28;;;;;;;;;;5224212;28;20052;-71
2023/07/27 00:24:40;;;;;;;9.25;3.90;;;;;;;;;;5224841;28;20422;-71
2023/07/27 00:27:10;;;;;;;8.68;4.53;;;;;;;;;;5224879;28;20017;-71
2023/07/27 00:29:40;;;;;;;8.25;4.55;;;;;;;;;;5222822;28;20029;-72
2023/07/27 00:32:11;;;;;;;9.63;3.92;;;;;;;;;;5213477;28;20045;-71
2023/07/27 00:34:41;;;;;;;10.32;4.35;;;;;;;;;;5224044;28;20025;-72
2023/07/27 00:37:12;;;;;;;8.10;4.20;;;;;;;;;;5224053;28;20017;-71
2023/07/27 00:39:42;;;;;;;9.38;4.10;;;;;;;;;;5224570;28;20020;-72
2023/07/27 00:42:13;;;;;;;17.63;4.47;;;;;;;;;;5225085;28;20021;-70
2023/07/27 00:44:43;;;;;;;9.63;4.60;;;;;;;;;;5224173;28;20096;-71
2023/07/27 00:47:13;;;;;;;9.02;4.65;;;;;;;;;;5224182;28;20459;-71
2023/07/27 00:49:43;;;;;;;10.27;5.13;;;;;;;;;;5224455;28;20493;-71
2023/07/27 00:52:14;;;;;;;8.20;5.25;;;;;;;;;;5224485;28;20025;-71
2023/07/27 00:54:44;;;;;;;9.73;5.20;;;;;;;;;;5224216;28;20471;-71
2023/07/27 00:57:15;;;;;;;11.93;4.95;;;;;;;;;;5223615;28;20075;-72
2023/07/27 00:59:45;;;;;;;10.75;5.65;;;;;;;;;;5224113;28;20600;-72
2023/07/27 01:02:16;;;;;;;13.48;5.72;;;;;;;;;;5224538;28;20029;-72
2023/07/27 01:04:47;;;;;;;11.82;5.57;;;;;;;;;;5224396;28;20103;-72
2023/07/27 01:07:17;;;;;;;11.63;5.45;;;;;;;;;;5224214;28;20023;-72
2023/07/27 01:09:47;;;;;;;9.95;5.60;;;;;;;;;;5224410;28;20017;-71
2023/07/27 01:12:23;;;;;;;12.90;6.05;;;;;;;;;;5224052;28;20099;-71
2023/07/27 01:14:59;;;;;;;12.73;5.13;;;;;;;;;;5224219;28;20021;-71
2023/07/27 01:17:34;;;;;;;11.20;5.72;;;;;;;;;;5223908;28;20020;-71
2023/07/27 01:20:20;;;;;;;11.48;5.63;;;;;;;;;;5224012;28;20441;-71
2023/07/27 01:23:00;;;;;;;12.77;5.85;;;;;;;;;;5224051;28;20029;-71
2023/07/27 01:25:38;;;;;;;14.40;6.13;;;;;;;;;;5211502;28;20297;-71
2023/07/27 01:28:17;;;;;;;12.75;5.45;;;;;;;;;;5223883;28;20017;-71
2023/07/27 01:31:03;;;;;;;13.05;5.25;;;;;;;;;;5212198;28;20465;-71
2023/07/27 01:33:37;;;;;;;13.68;6.07;;;;;;;;;;5210504;28;20009;-71
2023/07/27 01:36:10;;;;;;;11.63;5.47;;;;;;;;;;5223572;28;20347;-71
2023/07/27 01:38:42;;;;;;;11.98;5.63;;;;;;;;;;5223694;28;20104;-71
2023/07/27 01:41:13;;;;;;;16.40;6.30;;;;;;;;;;5222937;28;20020;-72
2023/07/27 01:43:44;;;;;;;13.63;6.47;;;;;;;;;;5223694;28;20066;-71
2023/07/27 01:46:14;;;;;;;10.45;5.82;;;;;;;;;;5222913;28;20029;-72
2023/07/27 01:48:46;;;;;;;15.10;6.20;;;;;;;;;;5223704;28;20017;-71
2023/07/27 01:51:17;;;;;;;13.20;6.57;;;;;;;;;;5223260;28;20376;-72
2023/07/27 01:54:08;;;;;;;14.15;6.43;;;;;;;;;;5222731;28;20122;-71
2023/07/27 01:56:58;;;;;;;13.02;6.55;;;;;;;;;;5222377;28;20055;-72
2023/07/27 01:59:49;;;;;;;12.00;6.72;;;;;;;;;;5197152;28;20506;-72
2023/07/27 02:02:40;;;;;;;15.90;6.65;;;;;;;;;;5222142;28;20486;-72
2023/07/27 02:05:31;;;;;;;14.88;6.47;;;;;;;;;;5222135;28;20060;-71
2023/07/27 02:08:22;;;;;;;15.75;6.82;;;;;;;;;;5221749;28;20065;-72
2023/07/27 02:11:16;;;;;;;16.05;7.18;;;;;;;;;;5222349;28;20017;-71
2023/07/27 02:13:51;;;;;;;14.30;7.43;;;;;;;;;;5223317;28;20017;-72
2023/07/27 02:16:40;;;;;;;16.92;7.72;;;;;;;;;;5222576;28;20029;-72
2023/07/27 02:19:12;;;;;;;14.60;7.63;;;;;;;;;;5222320;28;20497;-71
2023/07/27 02:22:04;;;;;;;18.17;7.75;;;;;;;;;;5222403;28;20029;-71
2023/07/27 02:24:54;;;;;;;20.88;8.00;;;;;;;;;;5221593;28;20028;-72
2023/07/27 02:27:45;;;;;;;17.80;8.80;;;;;;;;;;5221605;28;20490;-71
2023/07/27 02:30:35;;;;;;;14.32;8.73;;;;;;;;;;5212921;28;20041;-71
2023/07/27 02:33:25;;;;;;;19.92;7.53;;;;;;;;;;5248961;28;20017;-72
2023/07/27 02:36:15;;;;;;;17.55;6.78;;;;;;;;;;5221467;28;20057;-72
2023/07/27 02:39:06;;;;;;;13.18;6.78;;;;;;;;;;5225042;28;20013;-72
2023/07/27 02:41:56;;;;;;;18.25;7.40;;;;;;;;;;5215407;28;20032;-72
2023/07/27 02:44:46;;;;;;;13.43;6.15;;;;;;;;;;5226234;28;20020;-72
2023/07/27 02:47:37;;;;;;;14.13;6.18;;;;;;;;;;5225703;28;20021;-72
2023/07/27 02:50:27;;;;;;;11.70;5.88;;;;;;;;;;5226319;28;20467;-72
2023/07/27 02:53:18;;;;;;;20.75;5.93;;;;;;;;;;5226358;28;20371;-72
2023/07/27 02:56:08;;;;;;;13.77;6.38;;;;;;;;;;5211377;28;20079;-72
2023/07/27 02:58:58;;;;;;;10.60;6.30;;;;;;;;;;5225995;28;20063;-72
2023/07/27 03:01:48;;;;;;;13.95;5.43;;;;;;;;;;5225991;28;20021;-73
2023/07/27 03:04:39;;;;;;;12.65;6.70;;;;;;;;;;5225537;28;20104;-72
2023/07/27 03:07:29;;;;;;;11.60;6.07;;;;;;;;;;5211278;28;20478;-72
2023/07/27 03:10:19;;;;;;;11.85;6.07;;;;;;;;;;5226964;28;20028;-73
2023/07/27 03:12:51;;;;;;;13.43;5.75;;;;;;;;;;5226571;28;20017;-72
2023/07/27 03:15:22;;;;;;;8.77;5.97;;;;;;;;;;5226613;28;20178;-73
2023/07/27 03:17:52;;;;;;;13.88;5.90;;;;;;;;;;5226268;28;20031;-72
2023/07/27 03:20:43;;;;;;;10.77;5.35;;;;;;;;;;5225481;28;20435;-72
2023/07/27 03:23:33;;;;;;;10.18;4.97;;;;;;;;;;5225778;28;20103;-73
2023/07/27 03:26:23;;;;;;;11.73;6.10;;;;;;;;;;5224831;28;20021;-73
2023/07/27 03:29:13;;;;;;;11.13;5.43;;;;;;;;;;5225654;28;20106;-72
2023/07/27 03:31:44;;;;;;;11.88;5.55;;;;;;;;;;5212572;28;20084;-72
2023/07/27 03:34:34;;;;;;;11.35;5.97;;;;;;;;;;5225376;28;20044;-72
2023/07/27 03:37:24;;;;;;;12.55;5.82;;;;;;;;;;5224991;28;20009;-73
2023/07/27 03:40:04;;;;;;;12.90;5.82;;;;;;;;;;5213005;28;20322;-73
2023/07/27 03:42:34;;;;;;;11.77;4.95;;;;;;;;;;5226194;28;20043;-73
2023/07/27 03:45:25;;;;;;;12.43;6.10;;;;;;;;;;5211220;28;20021;-73
2023/07/27 03:48:15;;;;;;;9.77;5.50;;;;;;;;;;5224592;28;20107;-73
2023/07/27 03:51:05;;;;;;;12.75;4.90;;;;;;;;;;5223933;28;20413;-73
2023/07/27 03:53:55;;;;;;;9.27;5.70;;;;;;;;;;5225250;28;20104;-72
2023/07/27 03:56:46;;;;;;;10.27;5.80;;;;;;;;;;5211221;28;20040;-73
2023/07/27 03:59:34;;;;;;;9.82;5.57;;;;;;;;;;5225774;28;20112;-72
2023/07/27 04:02:25;;;;;;;12.52;5.78;;;;;;;;;;5224345;28;20029;-72
2023/07/27 04:05:15;;;;;;;9.68;5.80;;;;;;;;;;5224635;28;20029;-73
2023/07/27 04:08:05;;;;;;;11.77;5.57;;;;;;;;;;5224830;28;20039;-72
2023/07/27 04:10:36;;;;;;;10.68;5.47;;;;;;;;;;5225640;28;20017;-72
2023/07/27 04:13:06;;;;;;;10.15;4.80;;;;;;;;;;5225341;28;20470;-72
2023/07/27 04:15:56;;;;;;;15.23;5.95;;;;;;;;;;5224430;28;20124;-72
2023/07/27 04:18:29;;;;;;;11.52;5.93;;;;;;;;;;5225430;28;20112;-73
2023/07/27 04:21:19;;;;;;;11.57;5.50;;;;;;;;;;5225677;28;20025;-73
2023/07/27 04:23:50;;;;;;;10.15;5.53;;;;;;;;;;5225144;28;20439;-73
2023/07/27 04:26:37;;;;;;;11.20;5.38;;;;;;;;;;5225223;28;20471;-73
2023/07/27 04:29:07;;;;;;;12.18;6.38;;;;;;;;;;5225258;28;20028;-73
2023/07/27 04:31:38;;;;;;;9.75;5.55;;;;;;;;;;5211886;28;20083;-73
2023/07/27 04:34:08;;;;;;;8.38;5.07;;;;;;;;;;5225433;28;20414;-73
2023/07/27 04:36:58;;;;;;;10.23;5.55;;;;;;;;;;5224100;28;20091;-73
2023/07/27 04:39:33;;;;;;;9.85;5.75;;;;;;;;;;5217153;28;20020;-73
2023/07/27 04:42:03;;;;;;;10.40;5.72;;;;;;;;;;5224019;28;20025;-73
2023/07/27 04:44:54;;;;;;;11.32;5.05;;;;;;;;;;5223925;28;20029;-73
2023/07/27 04:47:35;;;;;;;14.75;5.38;;;;;;;;;;5224315;28;20023;-73
2023/07/27 04:50:06;;;;;;;13.27;5.95;;;;;;;;;;5224904;28;20021;-73
2023/07/27 04:52:56;;;;;;;8.93;5.40;;;;;;;;;;5223571;28;20108;-72
2023/07/27 04:55:47;;;;;;;10.75;5.55;;;;;;;;;;5223715;28;20025;-73
2023/07/27 04:58:37;;;;;;;9.05;5.50;;;;;;;;;;5223949;28;20095;-72
2023/07/27 05:01:27;;;;;;;7.72;5.32;;;;;;;;;;5223474;28;20017;-73
2023/07/27 05:04:18;;;;;;;14.95;5.70;;;;;;;;;;5223801;28;20558;-72
2023/07/27 05:07:08;;;;;;;13.27;6.45;;;;;;;;;;5223113;28;20628;-72
2023/07/27 05:09:57;;;;;;;10.68;6.25;;;;;;;;;;5225132;28;20466;-72
2023/07/27 05:12:48;;;;;;;13.35;5.97;;;;;;;;;;5224011;28;20031;-73
2023/07/27 05:15:39;;;;;;;10.45;6.18;;;;;;;;;;5226951;28;20067;-73
2023/07/27 05:18:10;;;;;;;9.75;5.30;;;;;;;;;;5224233;28;20017;-72
2023/07/27 05:20:40;;;;;;;14.05;5.95;;;;;;;;;;5224724;28;20028;-72
2023/07/27 05:23:16;;;;;;;15.25;6.60;;;;;;;;;;5224252;28;20044;-72
2023/07/27 05:26:07;;;;;;;18.30;6.00;;;;;;;;;;5223615;28;20027;-73
2023/07/27 05:28:37;;;;;;;10.15;6.20;;;;;;;;;;5224680;28;20021;-73
2023/07/27 05:31:27;;;;;;;14.55;6.70;;;;;;;;;;5223149;28;20069;-73
2023/07/27 05:33:58;;;;;;;14.30;6.97;;;;;;;;;;5224276;28;20326;-73
2023/07/27 05:36:28;;;;;;;12.27;6.65;;;;;;;;;;5223224;28;20021;-73
2023/07/27 05:38:58;;;;;;;17.13;7.20;;;;;;;;;;5223823;28;20019;-73
2023/07/27 05:41:31;;;;;;;14.15;8.10;;;;;;;;;;5223992;28;20025;-73
2023/07/27 05:44:08;;;;;;;13.52;8.00;;;;;;;;;;5224156;28;20021;-73
2023/07/27 05:46:58;;;;;;;14.00;7.13;;;;;;;;;;5207989;28;20247;-73
2023/07/27 05:49:49;;;;;;;14.18;8.50;;;;;;;;;;5210285;28;20020;-73
2023/07/27 05:52:27;;;;;;;16.55;8.30;;;;;;;;;;5223914;28;20581;-72
2023/07/27 05:55:18;;;;;;;18.20;8.57;;;;;;;;;;5223001;28;20033;-73
2023/07/27 05:57:49;;;;;;;18.90;9.65;;;;;;;;;;5223458;28;20024;-73
2023/07/27 06:00:21;;;;;;;15.00;8.60;;;;;;;;;;5223636;28;20453;-73
2023/07/27 06:02:52;;;;;;;12.50;8.20;;;;;;;;;;5223607;28;20036;-72
2023/07/27 06:05:22;;;;;;;16.45;9.32;;;;;;;;;;5222442;28;20083;-73
2023/07/27 06:08:12;;;;;;;18.75;9.77;;;;;;;;;;5222764;28;20504;-73
2023/07/27 06:10:42;;;;;;;20.63;10.02;;;;;;;;;;5223155;28;20025;-73
2023/07/27 06:13:33;;;;;;;14.13;8.77;;;;;;;;;;5221867;28;20352;-73
2023/07/27 06:16:04;;;;;;;14.30;9.65;;;;;;;;;;5222714;28;20027;-73
2023/07/27 06:18:37;;;;;;;16.52;8.48;;;;;;;;;;5223266;28;20375;-73
2023/07/27 06:21:21;;;;;;;16.13;8.57;;;;;;;;;;5223465;28;20024;-73
2023/07/27 06:24:12;;;;;;;12.40;7.90;;;;;;;;;;5222473;28;20024;-72
2023/07/27 06:27:02;;;;;;;12.93;7.45;;;;;;;;;;5221598;28;20028;-73
2023/07/27 06:29:32;;;;;;;11.55;7.63;;;;;;;;;;5221906;28;20017;-73
2023/07/27 06:32:23;;;;;;;11.98;7.15;;;;;;;;;;5213706;28;20096;-73
2023/07/27 06:35:13;;;;;;;12.05;8.02;;;;;;;;;;5221906;28;20063;-73
2023/07/27 06:37:43;;;;;;;9.93;6.50;;;;;;;;;;5204572;28;20398;-73
2023/07/27 06:40:21;;;;;;;13.63;7.72;;;;;;;;;;5222309;28;20474;-73
2023/07/27 06:42:52;;;;;;;11.35;7.07;;;;;;;;;;5221890;28;20021;-73
2023/07/27 06:45:28;;;;;;;14.15;7.32;;;;;;;;;;5220349;28;20017;-73
2023/07/27 06:47:58;;;;;;;8.80;5.85;;;;;;;;;;5221348;28;20490;-72
2023/07/27 06:50:48;;;;;;;15.43;6.93;;;;;;;;;;5221105;28;20425;-72
2023/07/27 06:53:19;;;;;;;8.68;5.07;;;;;;;;;;5223595;28;20059;-72
2023/07/27 06:56:09;;;;;;;8.60;4.97;;;;;;;;;;5219245;28;20013;-73
2023/07/27 06:58:52;;;;;;;8.25;5.18;;;;;;;;;;5220315;28;20494;-72
2023/07/27 07:01:22;;;;;;;10.57;5.20;;;;;;;;;;5222212;28;20032;-73
2023/07/27 07:03:53;;;;;;;6.05;4.05;;;;;;;;;;5220804;28;20036;-73
2023/07/27 07:06:23;;;;;;;6.13;4.10;;;;;;;;;;5218542;28;20028;-73
2023/07/27 07:09:11;;;;;;;5.57;3.58;;;;;;;;;;5220879;28;20043;-72
2023/07/27 07:11:42;;;;;;;7.20;3.83;;;;;;;;;;5221490;28;20017;-73
2023/07/27 07:14:13;;;;;;;6.72;4.25;;;;;;;;;;5221510;28;20013;-72
2023/07/27 07:16:43;;;;;;;6.35;3.47;;;;;;;;;;5219426;28;20033;-72
2023/07/27 07:19:13;;;;;;;6.72;3.75;;;;;;;;;;5221796;28;20025;-73
2023/07/27 07:21:44;;;;;;;5.28;3.70;;;;;;;;;;5222212;28;20025;-73
2023/07/27 07:24:14;;;;;;;5.00;3.45;;;;;;;;;;5222908;28;20048;-73
2023/07/27 07:26:45;;;;;;;7.20;3.40;;;;;;;;;;5225448;28;20056;-74
2023/07/27 07:29:15;;;;;;;5.95;3.53;;;;;;;;;;5226147;28;20047;-73
2023/07/27 07:31:46;;;;;;;5.05;3.50;;;;;;;;;;5213141;28;20021;-73
2023/07/27 07:34:16;;;;;;;3.80;2.90;;;;;;;;;;5226498;28;20348;-73
2023/07/27 07:36:46;;;;;;;5.03;3.25;;;;;;;;;;5225588;28;20425;-73
2023/07/27 07:39:17;;;;;;;4.18;3.17;;;;;;;;;;5225873;28;20028;-72
2023/07/27 07:41:47;;;;;;;7.47;2.90;;;;;;;;;;5225715;28;20524;-73
2023/07/27 07:44:17;;;;;;;6.68;3.25;;;;;;;;;;5226150;28;20035;-73
2023/07/27 07:46:47;;;;;;;4.30;2.95;;;;;;;;;;5225412;28;20103;-72
2023/07/27 07:49:18;;;;;;;3.45;2.90;;;;;;;;;;5225736;28;20029;-72
2023/07/27 07:51:48;;;;;;;5.05;3.10;;;;;;;;;;5224830;28;20497;-73
2023/07/27 07:54:18;;;;;;;3.90;2.70;;;;;;;;;;5224355;28;20047;-73
2023/07/27 07:56:49;;;;;;;5.30;3.28;;;;;;;;;;5224722;28;20498;-72
2023/07/27 07:59:19;;;;;;;2.70;1.80;;;;;;;;;;5224393;28;20053;-73
2023/07/27 08:01:49;;;;;;;4.70;1.70;;;;;;;;;;5224846;28;20486;-73
2023/07/27 08:04:20;;;;;;;4.32;1.48;;;;;;;;;;5225019;28;20045;-72
2023/07/27 08:06:50;;;;;;;2.22;1.33;;;;;;;;;;5223103;28;20069;-73
2023/07/27 08:09:21;;;;;;;1.08;0.98;;;;;;;;;;5224897;28;20049;-73
2023/07/27 08:11:54;;;;;;;0.93;0.80;;;;;;;;;;5217782;28;20021;-73
2023/07/27 08:14:25;;;;;;;1.00;0.90;;;;;;;;;;5222188;28;20048;-73
2023/07/27 08:16:55;;;;;;;1.35;1.08;;;;;;;;;;5223293;28;20017;-73
2023/07/27 08:19:26;;;;;;;1.80;1.17;;;;;;;;;;5224614;28;20391;-73
2023/07/27 08:21:56;;;;;;;1.13;0.90;;;;;;;;;;5224637;28;20508;-73
2023/07/27 08:24:26;;;;;;;1.13;0.90;;;;;;;;;;5224981;28;20092;-73
2023/07/27 08:26:57;;;;;;;2.28;1.27;;;;;;;;;;5223705;28;20051;-73
2023/07/27 08:29:27;;;;;;;2.83;0.77;;;;;;;;;;5224008;28;20029;-73
2023/07/27 08:31:57;;;;;;;1.02;0.82;;;;;;;;;;5224949;28;20021;-73
2023/07/27 08:34:28;;;;;;;1.13;0.50;;;;;;;;;;5224615;28;20414;-73
2023/07/27 08:36:58;;;;;;;6.90;1.00;;;;;;;;;;5223636;28;20653;-73
2023/07/27 08:39:28;;;;;;;1.35;1.05;;;;;;;;;;5224504;28;20039;-72
2023/07/27 08:41:59;;;;;;;0.80;0.70;;;;;;;;;;5223538;28;20409;-72
2023/07/27 08:44:29;;;;;;;1.08;0.98;;;;;;;;;;5224672;28;20389;-72
2023/07/27 08:47:00;;;;;;;3.13;0.77;;;;;;;;;;5224339;28;20013;-72
2023/07/27 08:49:31;;;;;;;0.85;0.57;;;;;;;;;;5224812;28;20071;-72
2023/07/27 08:52:02;;;;;;;4.38;0.93;;;;;;;;;;5224567;28;20036;-72
2023/07/27 08:54:32;;;;;;;1.30;0.70;;;;;;;;;;5223823;28;20017;-72
2023/07/27 08:57:03;;;;;;;2.53;1.00;;;;;;;;;;5223429;28;20028;-72
2023/07/27 08:59:33;;;;;;;1.00;0.80;;;;;;;;;;5221789;28;20127;-72
2023/07/27 09:02:04;;;;;;;1.58;0.77;;;;;;;;;;5223745;28;20060;-72
2023/07/27 09:04:34;;;;;;;2.25;0.80;;;;;;;;;;5224078;28;20024;-72
2023/07/27 09:07:07;;;;;;;1.58;0.85;;;;;;;;;;5223636;28;20021;-72
2023/07/27 09:09:39;;;;;;;2.72;1.02;;;;;;;;;;5222765;28;20070;-72
2023/07/27 09:12:09;;;;;;;2.05;1.30;;;;;;;;;;5224093;28;20013;-72
2023/07/27 09:14:40;;;;;;;1.67;1.30;;;;;;;;;;5224381;28;20020;-72
2023/07/27 09:17:12;;;;;;;1.58;1.15;;;;;;;;;;5223816;28;20024;-72
2023/07/27 09:19:43;;;;;;;2.45;1.30;;;;;;;;;;5223615;28;20048;-72
2023/07/27 09:22:15;;;;;;;2.38;1.15;;;;;;;;;;5222449;28;20025;-72
2023/07/27 09:24:48;;;;;;;1.58;1.10;;;;;;;;;;5219534;28;20028;-72
2023/07/27 09:27:22;;;;;;;1.73;1.40;;;;;;;;;;5214237;28;20031;-72
2023/07/27 09:30:12;;;;;;;2.28;1.30;;;;;;;;;;5216960;28;20022;-73
2023/07/27 09:32:43;;;;;;;3.38;1.35;;;;;;;;;;5215498;28;20025;-73
2023/07/27 09:35:14;;;;;;;3.20;1.80;;;;;;;;;;5221645;28;20364;-73
2023/07/27 09:37:45;;;;;;;1.83;1.60;;;;;;;;;;5221704;28;20025;-72
2023/07/27 09:40:17;;;;;;;3.05;1.60;;;;;;;;;;5222274;28;20530;-72
2023/07/27 09:42:47;;;;;;;2.13;1.75;;;;;;;;;;5220713;28;21334;-72
2023/07/27 09:45:19;;;;;;;2.13;1.40;;;;;;;;;;5221670;28;20028;-73
2023/07/27 09:47:51;;;;;;;3.80;1.58;;;;;;;;;;5220547;28;20013;-73
2023/07/27 09:50:22;;;;;;;4.35;1.50;;;;;;;;;;5220341;28;20032;-73
2023/07/27 09:52:53;;;;;;;2.88;1.77;;;;;;;;;;5221713;28;20371;-73
2023/07/27 09:55:24;;;;;;;3.90;1.50;;;;;;;;;;5221403;28;20389;-72
2023/07/27 09:57:59;;;;;;;1.60;1.50;;;;;;;;;;5219892;28;20028;-72
2023/07/27 10:00:29;;;;;;;2.47;1.85;;;;;;;;;;5221646;28;20044;-72
2023/07/27 10:03:00;;;;;;;2.05;1.33;;;;;;;;;;5221723;28;20029;-72
2023/07/27 10:05:30;;;;;;;1.90;1.45;;;;;;;;;;5220731;28;20021;-72
2023/07/27 10:08:02;;;;;;;1.17;1.08;;;;;;;;;;5221363;28;20017;-72
2023/07/27 10:10:33;;;;;;;1.05;0.82;;;;;;;;;;5221826;28;20021;-72
2023/07/27 10:13:07;;;;;;;2.53;1.08;;;;;;;;;;5221555;28;20467;-72
2023/07/27 10:15:39;;;;;;;1.88;0.80;;;;;;;;;;5221307;28;20032;-72
2023/07/27 10:18:12;;;;;;;1.33;0.82;;;;;;;;;;5221252;28;20017;-72
2023/07/27 10:20:43;;;;;;;1.45;0.80;;;;;;;;;;5222098;28;20029;-72
2023/07/27 10:23:18;;;;;;;0.55;0.50;;;;;;;;;;5220641;28;20106;-72
2023/07/27 10:26:05;;;;;;;1.00;0.70;;;;;;;;;;5219947;28;20482;-72
2023/07/27 10:28:38;;;;;;;1.73;0.70;;;;;;;;;;5220061;28;20025;-72
2023/07/27 10:31:27;;;;;;;0.73;0.60;;;;;;;;;;5221133;28;20065;-72
2023/07/27 10:33:59;;;;;;;1.15;0.95;;;;;;;;;;5220912;28;20513;-72
2023/07/27 10:36:48;;;;;;;1.48;0.82;;;;;;;;;;5218916;28;20028;-72
2023/07/27 10:39:24;;;;;;;2.33;1.30;;;;;;;;;;5220432;28;20432;-72
2023/07/27 10:42:13;;;;;;;1.77;1.08;;;;;;;;;;5221104;28;20021;-72
2023/07/27 10:44:46;;;;;;;1.33;1.10;;;;;;;;;;5221169;28;20025;-72
2023/07/27 10:47:20;;;;;;;2.33;1.13;;;;;;;;;;5221055;28;20032;-72
2023/07/27 10:49:51;;;;;;;2.28;1.27;;;;;;;;;;5222111;28;20467;-72
2023/07/27 10:52:23;;;;;;;2.03;1.40;;;;;;;;;;5221871;28;20059;-71
2023/07/27 10:54:57;;;;;;;1.52;1.40;;;;;;;;;;5221631;28;20086;-71
2023/07/27 10:57:28;;;;;;;4.32;1.88;;;;;;;;;;5220756;28;20131;-71
2023/07/27 10:59:59;;;;;;;2.85;2.10;;;;;;;;;;5223730;28;20390;-71
2023/07/27 11:02:32;;;;;;;2.78;2.47;;;;;;;;;;5225073;28;20474;-72
2023/07/27 11:05:04;;;;;;;3.83;2.55;;;;;;;;;;5224941;28;20017;-73
2023/07/27 11:07:36;;;;;;;4.78;2.83;;;;;;;;;;5225085;28;20028;-72
2023/07/27 11:10:08;;;;;;;5.03;3.25;;;;;;;;;;5224788;28;20047;-72
2023/07/27 11:12:49;;;;;;;4.15;2.88;;;;;;;;;;5225584;28;20033;-72
2023/07/27 11:15:21;;;;;;;4.28;3.10;;;;;;;;;;5225013;28;20421;-72
2023/07/27 11:17:53;;;;;;;4.15;3.22;;;;;;;;;;5224901;28;20147;-72
2023/07/27 11:20:24;;;;;;;6.00;3.30;;;;;;;;;;5224406;28;20248;-73
2023/07/27 11:22:56;;;;;;;3.42;3.00;;;;;;;;;;5224840;28;20028;-72
2023/07/27 11:25:31;;;;;;;4.57;3.60;;;;;;;;;;5224565;28;20116;-72
2023/07/27 11:28:04;;;;;;;3.33;2.95;;;;;;;;;;5224332;28;20024;-72
2023/07/27 11:30:35;;;;;;;5.50;2.95;;;;;;;;;;5219532;28;20021;-73
2023/07/27 11:33:06;;;;;;;3.50;2.90;;;;;;;;;;5220573;28;20572;-72
2023/07/27 11:35:55;;;;;;;7.47;3.72;;;;;;;;;;5223906;28;20025;-72
2023/07/27 11:38:28;;;;;;;3.40;2.90;;;;;;;;;;5223487;28;20028;-72
2023/07/27 11:40:59;;;;;;;4.90;3.00;;;;;;;;;;5222348;28;20025;-72
2023/07/27 11:43:30;;;;;;;3.72;2.78;;;;;;;;;;5223315;28;20512;-72
2023/07/27 11:46:01;;;;;;;3.20;2.67;;;;;;;;;;5222578;28;20032;-72
2023/07/27 11:48:33;;;;;;;4.10;2.90;;;;;;;;;;5224425;28;20021;-72
2023/07/27 11:51:04;;;;;;;3.22;2.63;;;;;;;;;;5224456;28;20212;-72
2023/07/27 11:53:35;;;;;;;5.75;2.92;;;;;;;;;;5224233;28;20013;-72
2023/07/27 11:56:24;;;;;;;3.13;2.63;;;;;;;;;;5223921;28;20025;-72
2023/07/27 11:58:54;;;;;;;3.33;2.67;;;;;;;;;;5224304;28;20025;-72
2023/07/27 12:01:25;;;;;;;3.45;2.85;;;;;;;;;;5224530;28;20422;-72
2023/07/27 12:03:55;;;;;;;6.05;2.83;;;;;;;;;;5224064;28;20032;-72
2023/07/27 12:06:25;;;;;;;4.10;3.05;;;;;;;;;;5223250;28;20028;-72
2023/07/27 12:08:56;;;;;;;4.38;2.67;;;;;;;;;;5224521;28;20352;-72
2023/07/27 12:11:27;;;;;;;4.20;2.38;;;;;;;;;;5221830;28;20116;-72
2023/07/27 12:14:02;;;;;;;3.97;2.88;;;;;;;;;;5224250;28;20086;-72
2023/07/27 12:16:36;;;;;;;5.53;3.10;;;;;;;;;;5221207;28;20017;-72
2023/07/27 12:19:08;;;;;;;6.07;2.95;;;;;;;;;;5224263;28;20474;-72
2023/07/27 12:21:38;;;;;;;4.15;3.05;;;;;;;;;;5224142;28;20033;-72
2023/07/27 12:24:09;;;;;;;3.88;2.95;;;;;;;;;;5224029;28;20032;-72
2023/07/27 12:26:40;;;;;;;3.08;2.63;;;;;;;;;;5223123;28;20019;-72
2023/07/27 12:29:11;;;;;;;3.13;2.63;;;;;;;;;;5222162;28;20390;-71
2023/07/27 12:31:41;;;;;;;3.53;2.22;;;;;;;;;;5223833;28;20475;-72
2023/07/27 12:34:12;;;;;;;3.30;2.42;;;;;;;;;;5224015;28;20017;-72
2023/07/27 12:36:42;;;;;;;3.75;2.03;;;;;;;;;;5223565;28;20029;-72
2023/07/27 12:39:12;;;;;;;2.65;2.10;;;;;;;;;;5223476;28;20029;-72
2023/07/27 12:41:42;;;;;;;3.00;2.25;;;;;;;;;;5223364;28;20033;-72
2023/07/27 12:44:13;;;;;;;4.97;2.78;;;;;;;;;;5223541;28;20021;-72
2023/07/27 12:46:45;;;;;;;3.42;2.47;;;;;;;;;;5222963;28;20063;-73
2023/07/27 12:49:16;;;;;;;4.43;2.40;;;;;;;;;;5222190;28;20025;-72
2023/07/27 12:51:46;;;;;;;3.15;2.08;;;;;;;;;;5223419;28;20017;-71
2023/07/27 12:54:16;;;;;;;2.10;1.80;;;;;;;;;;5222690;28;20029;-71
2023/07/27 12:56:47;;;;;;;2.42;1.95;;;;;;;;;;5221858;28;20005;-72
2023/07/27 12:59:17;;;;;;;6.65;2.28;;;;;;;;;;5222759;28;20017;-71
2023/07/27 13:01:48;;;;;;;2.83;1.90;;;;;;;;;;5223265;28;20029;-72
2023/07/27 13:04:19;;;;;;;3.08;2.55;;;;;;;;;;5223571;28;20485;-72
2023/07/27 13:06:49;;;;;;;4.72;1.90;;;;;;;;;;5221704;28;20039;-71
2023/07/27 13:09:19;;;;;;;2.63;2.00;;;;;;;;;;5223023;28;20092;-72
2023/07/27 13:11:50;;;;;;;3.35;2.00;;;;;;;;;;5223222;28;20028;-72
2023/07/27 13:14:20;;;;;;;2.33;1.70;;;;;;;;;;5221907;28;20008;-72
2023/07/27 13:16:50;;;;;;;1.52;1.42;;;;;;;;;;5223725;28;20031;-72
2023/07/27 13:19:20;;;;;;;2.30;1.80;;;;;;;;;;5222933;28;20390;-72
2023/07/27 13:21:51;;;;;;;3.25;1.98;;;;;;;;;;5223872;28;20024;-72
2023/07/27 13:24:21;;;;;;;2.42;2.00;;;;;;;;;;5224510;28;20486;-72
2023/07/27 13:26:52;;;;;;;4.15;1.80;;;;;;;;;;5223241;28;20032;-72
2023/07/27 13:29:22;;;;;;;3.42;2.13;;;;;;;;;;5223765;28;20414;-72
2023/07/27 13:31:52;;;;;;;5.93;2.13;;;;;;;;;;5210711;28;20036;-72
2023/07/27 13:34:22;;;;;;;3.58;1.70;;;;;;;;;;5223556;28;20028;-72
2023/07/27 13:36:53;;;;;;;2.47;1.88;;;;;;;;;;5223676;28;20406;-71
2023/07/27 13:39:23;;;;;;;4.68;2.00;;;;;;;;;;5223704;28;20025;-72
2023/07/27 13:41:54;;;;;;;4.25;2.00;;;;;;;;;;5223668;28;20025;-72
2023/07/27 13:44:24;;;;;;;2.42;1.80;;;;;;;;;;5223930;28;20033;-71
2023/07/27 13:46:54;;;;;;;4.32;2.20;;;;;;;;;;5223419;28;20087;-72
2023/07/27 13:49:25;;;;;;;3.60;2.30;;;;;;;;;;5223776;28;20021;-72
2023/07/27 13:51:55;;;;;;;2.85;1.63;;;;;;;;;;5223805;28;20493;-72
2023/07/27 13:54:25;;;;;;;2.67;2.40;;;;;;;;;;5223237;28;20395;-72
2023/07/27 13:56:56;;;;;;;5.18;1.80;;;;;;;;;;5223086;28;20032;-72
2023/07/27 13:59:26;;;;;;;3.92;2.17;;;;;;;;;;5223342;28;20029;-72
2023/07/27 14:01:58;;;;;;;3.22;2.00;;;;;;;;;;5223240;28;20047;-72
2023/07/27 14:04:28;;;;;;;3.47;2.45;;;;;;;;;;5223537;28;20108;-72
2023/07/27 14:06:59;;;;;;;3.08;2.28;;;;;;;;;;5222407;28;20135;-72
2023/07/27 14:09:29;;;;;;;4.95;2.17;;;;;;;;;;5223177;28;20029;-72
2023/07/27 14:12:00;;;;;;;3.15;2.08;;;;;;;;;;5223455;28;20592;-72
2023/07/27 14:14:30;;;;;;;5.20;2.53;;;;;;;;;;5223183;28;20021;-72
2023/07/27 14:17:00;;;;;;;3.65;2.13;;;;;;;;;;5223003;28;20066;-71
2023/07/27 14:19:31;;;;;;;3.17;2.00;;;;;;;;;;5213433;28;20017;-72
2023/07/27 14:22:01;;;;;;;2.88;2.10;;;;;;;;;;5213781;28;20107;-72
2023/07/27 14:24:32;;;;;;;2.35;2.15;;;;;;;;;;5214642;28;20028;-72
2023/07/27 14:27:03;;;;;;;3.58;2.28;;;;;;;;;;5213999;28;20025;-71
2023/07/27 14:29:33;;;;;;;3.70;2.00;;;;;;;;;;5220647;28;20199;-72
2023/07/27 14:32:03;;;;;;;4.80;2.05;;;;;;;;;;5220870;28;20025;-71
2023/07/27 14:34:34;;;;;;;2.88;1.80;;;;;;;;;;5226000;28;20044;-71
2023/07/27 14:37:04;;;;;;;2.65;2.00;;;;;;;;;;5227845;28;20075;-72
2023/07/27 14:39:35;;;;;;;2.80;2.35;;;;;;;;;;5227478;28;20017;-72
2023/07/27 14:42:05;;;;;;;2.95;1.90;;;;;;;;;;5227160;28;20031;-71
2023/07/27 14:44:35;;;;;;;3.13;2.40;;;;;;;;;;5227339;28;20356;-71
2023/07/27 14:47:07;;;;;;;2.40;2.20;;;;;;;;;;5227689;28;20029;-72
2023/07/27 14:49:38;;;;;;;4.38;2.50;;;;;;;;;;5227680;28;20055;-72
2023/07/27 14:52:09;;;;;;;4.93;2.45;;;;;;;;;;5228072;28;20021;-71
2023/07/27 14:54:39;;;;;;;4.80;2.28;;;;;;;;;;5228304;28;20565;-72
2023/07/27 14:57:10;;;;;;;4.85;2.20;;;;;;;;;;5226797;28;20096;-72
2023/07/27 14:59:40;;;;;;;5.57;3.15;;;;;;;;;;5227847;28;20024;-71
2023/07/27 15:02:10;;;;;;;3.88;2.75;;;;;;;;;;5227872;28;20045;-72
2023/07/27 15:04:41;;;;;;;4.47;2.50;;;;;;;;;;5228153;28;20025;-72
2023/07/27 15:07:11;;;;;;;3.28;2.60;;;;;;;;;;5227433;28;20432;-71
2023/07/27 15:09:41;;;;;;;4.38;2.50;;;;;;;;;;5227237;28;20155;-72
2023/07/27 15:12:12;;;;;;;3.97;2.78;;;;;;;;;;5228025;28;20048;-72
2023/07/27 15:14:42;;;;;;;4.30;3.00;;;;;;;;;;5228041;28;20391;-72
2023/07/27 15:17:12;;;;;;;5.97;2.78;;;;;;;;;;5227149;28;20256;-72
2023/07/27 15:19:44;;;;;;;3.13;2.53;;;;;;;;;;5227794;28;20433;-72
2023/07/27 15:22:14;;;;;;;3.85;2.97;;;;;;;;;;5227277;28;20056;-71
2023/07/27 15:24:45;;;;;;;4.10;2.97;;;;;;;;;;5228042;28;20496;-72
2023/07/27 15:27:15;;;;;;;6.82;3.13;;;;;;;;;;5226992;28;20088;-72